Time;durP1;ratioP1;P1;durP2;ratioP2;P2;SDS_P1;SDS_P2;PMS_P1;PMS_P2;Temp;Humidity;BMP_temperature;BMP_pressure;BME280_temperature;BME280_humidity;BME280_pressure;Samples;Min_cycle;Max_cycle;Signal;HPM_P1;HPM_P2
2022/08/21 00:01:20;;;;;;;8.32;4.47;;;13.20;99.90;;;;;;5063413;28;20048;-56
2022/08/21 00:03:45;;;;;;;8.00;4.82;;;12.80;99.90;;;;;;5065030;28;20169;-56
2022/08/21 00:06:11;;;;;;;9.10;5.00;;;12.80;99.90;;;;;;5065094;28;20649;-55
2022/08/21 00:08:37;;;;;;;13.38;5.35;;;12.90;99.90;;;;;;5066078;28;20093;-56
2022/08/21 00:11:04;;;;;;;9.40;5.50;;;13.80;99.90;;;;;;5065596;28;20381;-56
2022/08/21 00:13:30;;;;;;;11.27;4.90;;;12.60;99.90;;;;;;5039998;28;20044;-56
2022/08/21 00:15:56;;;;;;;10.55;5.18;;;12.70;99.90;;;;;;5065306;28;20046;-56
2022/08/21 00:18:22;;;;;;;11.27;5.25;;;12.60;99.90;;;;;;5048893;28;20048;-55
2022/08/21 00:20:48;;;;;;;11.18;4.93;;;15.00;99.90;;;;;;5071734;28;20041;-56
2022/08/21 00:23:15;;;;;;;9.85;5.05;;;14.60;99.90;;;;;;5062100;28;20453;-57
2022/08/21 00:25:42;;;;;;;10.95;5.78;;;12.70;99.90;;;;;;5070021;28;20043;-55
2022/08/21 00:28:09;;;;;;;7.55;5.40;;;13.60;99.90;;;;;;5070658;28;20048;-56
2022/08/21 00:30:35;;;;;;;11.13;6.07;;;12.50;99.90;;;;;;5070021;28;20059;-56
2022/08/21 00:33:01;;;;;;;9.88;5.25;;;12.50;99.90;;;;;;5069108;28;20040;-56
2022/08/21 00:35:37;;;;;;;11.32;6.00;;;12.50;99.90;;;;;;5069977;28;20058;-56
2022/08/21 00:38:05;;;;;;;9.48;4.90;;;12.70;99.90;;;;;;5062754;28;20036;-55
2022/08/21 00:40:47;;;;;;;10.60;4.90;;;12.60;99.90;;;;;;5053674;28;20036;-54
2022/08/21 00:43:16;;;;;;;8.98;4.70;;;12.40;99.90;;;;;;5046248;28;20205;-56
2022/08/21 00:45:42;;;;;;;7.40;4.30;;;12.30;99.90;;;;;;5067848;28;20070;-56
2022/08/21 00:48:08;;;;;;;10.48;5.50;;;13.90;99.90;;;;;;5050962;28;20171;-56
2022/08/21 00:50:41;;;;;;;8.98;5.05;;;12.40;99.90;;;;;;5052154;28;20054;-54
2022/08/21 00:53:09;;;;;;;7.07;4.47;;;12.40;99.90;;;;;;5065800;28;20084;-55
2022/08/21 00:55:36;;;;;;;8.65;4.63;;;12.10;99.90;;;;;;5070833;28;20568;-55
2022/08/21 00:58:05;;;;;;;6.93;4.30;;;12.20;99.90;;;;;;5065798;28;20040;-56
2022/08/21 01:00:36;;;;;;;7.15;4.47;;;12.00;99.90;;;;;;5064022;28;20508;-54
2022/08/21 01:03:06;;;;;;;7.75;5.00;;;12.20;99.90;;;;;;5066003;28;20096;-55
2022/08/21 01:05:32;;;;;;;13.00;6.25;;;13.40;99.90;;;;;;5065649;28;20089;-55
2022/08/21 01:07:58;;;;;;;11.30;5.70;;;11.40;99.90;;;;;;5067024;28;20630;-56
2022/08/21 01:10:23;;;;;;;16.05;7.90;;;12.10;99.90;;;;;;5065396;28;20457;-55
2022/08/21 01:12:52;;;;;;;13.75;8.55;;;12.30;99.90;;;;;;5067246;28;20474;-56
2022/08/21 01:15:20;;;;;;;14.98;8.60;;;12.60;99.90;;;;;;5067425;28;20051;-56
2022/08/21 01:17:46;;;;;;;16.95;8.10;;;12.60;99.90;;;;;;5063890;28;20036;-53
2022/08/21 01:20:12;;;;;;;13.48;7.70;;;12.90;99.90;;;;;;5063539;28;20131;-53
2022/08/21 01:22:39;;;;;;;11.98;7.85;;;12.50;99.90;;;;;;5064433;28;21304;-55
2022/08/21 01:25:06;;;;;;;13.15;6.93;;;14.00;99.90;;;;;;5068433;28;20127;-56
2022/08/21 01:27:32;;;;;;;11.93;5.45;;;12.50;99.90;;;;;;5067669;28;20040;-56
2022/08/21 01:30:07;;;;;;;8.35;5.00;;;12.30;99.90;;;;;;5053462;28;20048;-56
2022/08/21 01:32:33;;;;;;;13.20;6.40;;;12.60;99.90;;;;;;5063224;28;20134;-55
2022/08/21 01:34:59;;;;;;;13.60;6.40;;;12.40;99.90;;;;;;5065589;28;20040;-55
2022/08/21 01:37:24;;;;;;;14.95;7.10;;;12.80;99.90;;;;;;5063266;28;20064;-56
2022/08/21 01:39:50;;;;;;;10.88;6.65;;;13.60;99.90;;;;;;5051276;28;20040;-52
2022/08/21 01:42:16;;;;;;;11.38;6.68;;;12.80;99.90;;;;;;5062753;28;20040;-56
2022/08/21 01:44:43;;;;;;;10.80;7.25;;;12.70;99.90;;;;;;5066900;28;20116;-56
2022/08/21 01:47:12;;;;;;;17.20;7.40;;;12.70;99.90;;;;;;5063472;28;20032;-56
2022/08/21 01:49:38;;;;;;;14.27;6.78;;;12.70;99.90;;;;;;5068957;28;20072;-56
2022/08/21 01:52:05;;;;;;;10.13;5.30;;;12.70;99.90;;;;;;5067152;28;20152;-54
2022/08/21 01:54:32;;;;;;;10.23;4.72;;;12.60;99.90;;;;;;5065823;28;20036;-55
2022/08/21 01:56:59;;;;;;;11.27;5.10;;;14.70;99.90;;;;;;5066451;28;20610;-56
2022/08/21 01:59:27;;;;;;;9.70;5.63;;;12.30;99.90;;;;;;5064168;28;21176;-57
2022/08/21 02:01:56;;;;;;;11.88;6.40;;;12.50;99.90;;;;;;5064442;28;20059;-55
2022/08/21 02:04:22;;;;;;;15.77;6.40;;;12.50;99.90;;;;;;5066884;28;20051;-56
2022/08/21 02:06:49;;;;;;;12.63;6.72;;;12.50;99.90;;;;;;5066111;28;20044;-56
2022/08/21 02:09:15;;;;;;;13.65;7.82;;;12.50;99.90;;;;;;5065113;28;21685;-57
2022/08/21 02:11:42;;;;;;;18.38;8.40;;;12.50;99.90;;;;;;5063957;28;20051;-57
2022/08/21 02:14:09;;;;;;;15.88;8.68;;;12.60;99.90;;;;;;5059711;28;20036;-55
2022/08/21 02:16:34;;;;;;;14.13;7.90;;;12.40;99.90;;;;;;5062171;28;20523;-56
2022/08/21 02:19:00;;;;;;;16.75;8.43;;;12.80;99.90;;;;;;5065368;28;20063;-54
2022/08/21 02:21:27;;;;;;;15.63;8.20;;;12.70;99.90;;;;;;5065555;28;20049;-56
2022/08/21 02:23:52;;;;;;;14.98;8.27;;;12.60;99.90;;;;;;5069056;28;20044;-57
2022/08/21 02:26:18;;;;;;;17.92;8.77;;;12.90;99.90;;;;;;5068724;28;20048;-55
2022/08/21 02:28:44;;;;;;;15.20;8.90;;;13.10;99.90;;;;;;5066041;28;20141;-56
2022/08/21 02:31:10;;;;;;;16.83;8.45;;;13.00;99.90;;;;;;5064567;28;20051;-56
2022/08/21 02:33:36;;;;;;;15.00;8.85;;;12.90;99.90;;;;;;5048650;28;20048;-56
2022/08/21 02:36:03;;;;;;;18.05;9.18;;;12.70;99.90;;;;;;5066000;28;20077;-57
2022/08/21 02:38:33;;;;;;;13.68;8.15;;;12.80;99.90;;;;;;5062968;28;20702;-57
2022/08/21 02:40:59;;;;;;;12.43;8.82;;;15.20;99.90;;;;;;5065396;28;20044;-56
2022/08/21 02:43:27;;;;;;;14.15;9.63;;;12.70;99.90;;;;;;5060953;28;20074;-56
2022/08/21 02:45:55;;;;;;;15.63;9.35;;;12.80;99.90;;;;;;5058439;28;20627;-57
2022/08/21 02:48:24;;;;;;;17.85;8.85;;;12.90;99.90;;;;;;5063376;28;20079;-58
2022/08/21 02:50:59;;;;;;;12.55;8.18;;;12.90;99.90;;;;;;5065687;28;20036;-57
2022/08/21 02:53:26;;;;;;;15.48;8.02;;;12.80;99.90;;;;;;5065938;28;20044;-57
2022/08/21 02:55:53;;;;;;;16.20;10.10;;;12.70;99.90;;;;;;5068419;28;20067;-57
2022/08/21 02:58:23;;;;;;;13.60;10.07;;;12.90;99.90;;;;;;5063486;28;20062;-57
2022/08/21 03:00:49;;;;;;;15.82;9.70;;;12.90;99.90;;;;;;5062000;28;20726;-57
2022/08/21 03:03:15;;;;;;;16.23;10.68;;;13.20;99.90;;;;;;5066313;28;20060;-57
2022/08/21 03:05:41;;;;;;;17.58;9.25;;;12.60;99.90;;;;;;5062181;28;20044;-57
2022/08/21 03:08:10;;;;;;;15.98;10.52;;;12.80;99.90;;;;;;5045381;28;20049;-56
2022/08/21 03:10:41;;;;;;;15.25;9.65;;;12.80;99.90;;;;;;5063566;28;20032;-56
2022/08/21 03:13:07;;;;;;;20.40;9.88;;;12.80;99.90;;;;;;5064802;28;20494;-55
2022/08/21 03:15:33;;;;;;;17.33;10.05;;;13.70;99.90;;;;;;5067955;28;20043;-57
2022/08/21 03:17:59;;;;;;;17.67;9.55;;;15.10;99.90;;;;;;5046828;28;20052;-56
2022/08/21 03:20:28;;;;;;;18.83;9.95;;;13.30;99.90;;;;;;5062848;28;20036;-57
2022/08/21 03:22:54;;;;;;;15.63;8.98;;;12.80;99.90;;;;;;5065426;28;20481;-57
2022/08/21 03:25:21;;;;;;;15.82;10.38;;;12.80;99.90;;;;;;5064588;28;20044;-57
2022/08/21 03:27:48;;;;;;;16.17;9.90;;;12.70;99.90;;;;;;5062003;28;20109;-57
2022/08/21 03:30:16;;;;;;;17.33;10.00;;;12.70;99.90;;;;;;5062207;28;20121;-57
2022/08/21 03:32:41;;;;;;;13.60;9.73;;;12.80;99.90;;;;;;5064250;28;20054;-56
2022/08/21 03:35:08;;;;;;;16.35;10.45;;;12.90;99.90;;;;;;5062754;28;20520;-56
2022/08/21 03:37:34;;;;;;;16.63;9.95;;;12.90;99.90;;;;;;5048007;28;20512;-57
2022/08/21 03:39:59;;;;;;;17.67;10.57;;;13.60;99.90;;;;;;5061935;28;20044;-57
2022/08/21 03:42:25;;;;;;;17.45;9.23;;;13.00;99.90;;;;;;5065715;28;20404;-57
2022/08/21 03:44:51;;;;;;;17.60;10.80;;;12.80;99.90;;;;;;5062681;28;20055;-59
2022/08/21 03:47:17;;;;;;;18.17;10.57;;;12.90;99.90;;;;;;5063508;28;20527;-58
2022/08/21 03:49:43;;;;;;;16.38;9.32;;;13.00;99.90;;;;;;5064881;28;20433;-56
2022/08/21 03:52:08;;;;;;;14.35;9.20;;;15.00;99.90;;;;;;5069835;28;20040;-56
2022/08/21 03:54:34;;;;;;;14.00;9.95;;;12.90;99.90;;;;;;5067940;28;20064;-54
2022/08/21 03:57:00;;;;;;;17.67;9.18;;;13.00;99.90;;;;;;5069843;28;20542;-56
2022/08/21 03:59:25;;;;;;;16.33;9.80;;;12.90;99.90;;;;;;5063855;28;20040;-55
2022/08/21 04:01:52;;;;;;;16.92;9.95;;;11.60;99.90;;;;;;5069281;28;20032;-55
2022/08/21 04:04:18;;;;;;;15.77;9.38;;;12.90;99.90;;;;;;5068907;28;20043;-56
2022/08/21 04:06:44;;;;;;;18.80;10.23;;;13.30;99.90;;;;;;5067583;28;20043;-56
2022/08/21 04:09:10;;;;;;;17.58;9.85;;;12.90;99.90;;;;;;5066450;28;20036;-56
2022/08/21 04:11:36;;;;;;;18.02;9.05;;;12.90;99.90;;;;;;5067137;28;20092;-54
2022/08/21 04:14:03;;;;;;;15.90;9.50;;;12.80;99.90;;;;;;5070034;28;20822;-56
2022/08/21 04:16:28;;;;;;;15.02;9.38;;;13.00;99.90;;;;;;5067584;28;20049;-56
2022/08/21 04:18:55;;;;;;;15.05;8.88;;;13.10;99.90;;;;;;5069000;28;20047;-56
2022/08/21 04:21:20;;;;;;;16.70;8.50;;;13.20;99.90;;;;;;5045887;28;20123;-56
2022/08/21 04:23:46;;;;;;;20.98;9.30;;;13.00;99.90;;;;;;5064505;28;20081;-56
2022/08/21 04:26:12;;;;;;;15.57;8.82;;;13.00;99.90;;;;;;5052470;28;20040;-54
2022/08/21 04:28:37;;;;;;;18.10;9.20;;;13.00;99.90;;;;;;5066716;28;20117;-55
2022/08/21 04:31:03;;;;;;;17.30;9.13;;;12.90;99.90;;;;;;5070691;28;20044;-56
2022/08/21 04:33:29;;;;;;;14.10;8.88;;;13.00;99.90;;;;;;5068218;28;20044;-56
2022/08/21 04:35:55;;;;;;;20.23;9.68;;;13.00;99.90;;;;;;5070969;28;20047;-57
2022/08/21 04:38:21;;;;;;;12.85;9.32;;;12.90;99.90;;;;;;5064010;28;20571;-53
2022/08/21 04:40:48;;;;;;;14.93;8.68;;;13.10;99.90;;;;;;5068806;28;20097;-57
2022/08/21 04:43:14;;;;;;;14.20;9.40;;;13.60;99.90;;;;;;5051338;28;20194;-54
2022/08/21 04:45:44;;;;;;;13.77;8.05;;;13.00;99.90;;;;;;5065095;28;20048;-56
2022/08/21 04:48:13;;;;;;;22.42;8.82;;;13.10;99.90;;;;;;5068606;28;20044;-56
2022/08/21 04:50:48;;;;;;;16.98;9.00;;;13.10;99.90;;;;;;5065610;28;20414;-56
2022/08/21 04:53:36;;;;;;;17.38;8.52;;;12.90;99.90;;;;;;5067093;28;20066;-57
2022/08/21 04:56:08;;;;;;;17.23;9.27;;;12.90;99.90;;;;;;5050644;28;20085;-56
2022/08/21 04:58:35;;;;;;;17.58;8.88;;;13.10;99.90;;;;;;5043286;28;20044;-56
2022/08/21 05:01:03;;;;;;;19.13;9.00;;;13.10;99.90;;;;;;5043483;28;20048;-57
2022/08/21 05:03:32;;;;;;;19.48;8.98;;;13.30;99.90;;;;;;5065443;28;20082;-56
2022/08/21 05:05:59;;;;;;;12.68;8.80;;;13.20;99.90;;;;;;5065064;28;20044;-55
2022/08/21 05:08:27;;;;;;;16.10;8.30;;;13.30;99.90;;;;;;5070357;28;20040;-54
2022/08/21 05:10:54;;;;;;;17.10;8.80;;;14.50;99.90;;;;;;5065995;28;20139;-56
2022/08/21 05:13:20;;;;;;;21.77;8.68;;;13.40;99.90;;;;;;5061647;28;20526;-56
2022/08/21 05:15:46;;;;;;;17.13;8.70;;;13.40;99.90;;;;;;5067109;28;20036;-56
2022/08/21 05:18:12;;;;;;;17.92;8.30;;;13.40;99.90;;;;;;5048652;28;20040;-56
2022/08/21 05:20:38;;;;;;;17.45;8.50;;;13.60;99.90;;;;;;5066505;28;20071;-57
2022/08/21 05:23:10;;;;;;;17.38;8.60;;;13.50;99.90;;;;;;5063064;28;20136;-57
2022/08/21 05:25:35;;;;;;;17.55;8.65;;;13.60;99.90;;;;;;5065445;28;20048;-56
2022/08/21 05:28:01;;;;;;;14.98;8.13;;;13.60;99.90;;;;;;5065106;28;20040;-56
2022/08/21 05:30:27;;;;;;;17.67;7.85;;;13.80;99.90;;;;;;5064607;28;20040;-57
2022/08/21 05:33:00;;;;;;;14.50;8.05;;;14.00;99.90;;;;;;5065819;28;20050;-57
2022/08/21 05:35:28;;;;;;;16.35;8.02;;;14.10;99.90;;;;;;5066881;28;20079;-57
2022/08/21 05:37:54;;;;;;;14.63;8.02;;;14.20;99.90;;;;;;5063455;28;20098;-55
2022/08/21 05:40:20;;;;;;;13.45;7.68;;;14.20;99.90;;;;;;5063193;28;20469;-56
2022/08/21 05:42:45;;;;;;;13.00;7.03;;;14.10;99.90;;;;;;5066558;28;20147;-56
2022/08/21 05:45:11;;;;;;;17.02;8.25;;;14.40;99.90;;;;;;5065623;28;20075;-57
2022/08/21 05:47:37;;;;;;;15.18;7.03;;;14.70;99.90;;;;;;5065040;28;20044;-57
2022/08/21 05:50:04;;;;;;;15.43;7.07;;;14.80;99.90;;;;;;5068358;28;20044;-57
2022/08/21 05:52:30;;;;;;;14.68;7.50;;;14.80;99.90;;;;;;5065187;28;20412;-57
2022/08/21 05:54:56;;;;;;;13.77;6.93;;;15.00;99.90;;;;;;5068575;28;20040;-58
2022/08/21 05:57:23;;;;;;;13.00;6.85;;;15.20;99.90;;;;;;5060662;28;20127;-57
2022/08/21 05:59:49;;;;;;;12.57;6.82;;;15.40;99.90;;;;;;5066666;28;20044;-57
2022/08/21 06:02:18;;;;;;;12.27;6.28;;;15.50;99.90;;;;;;5063955;28;20048;-58
2022/08/21 06:04:43;;;;;;;11.35;6.00;;;15.80;99.90;;;;;;5064074;28;20045;-57
2022/08/21 06:07:09;;;;;;;12.57;6.30;;;15.70;99.90;;;;;;5046580;28;20047;-57
2022/08/21 06:09:37;;;;;;;17.23;6.22;;;16.10;99.90;;;;;;5057575;28;21769;-58
2022/08/21 06:12:11;;;;;;;11.98;5.60;;;16.30;99.90;;;;;;5062683;28;20508;-58
2022/08/21 06:14:39;;;;;;;9.80;5.10;;;16.90;99.90;;;;;;5059846;28;20040;-58
2022/08/21 06:17:08;;;;;;;12.07;5.20;;;17.40;99.90;;;;;;5058460;28;20201;-58
2022/08/21 06:19:35;;;;;;;11.65;5.50;;;17.90;99.90;;;;;;5059874;28;20040;-58
2022/08/21 06:22:01;;;;;;;15.27;5.38;;;18.60;99.90;;;;;;5065863;28;20416;-57
2022/08/21 06:24:26;;;;;;;13.23;5.35;;;18.80;99.90;;;;;;5061060;28;20047;-58
2022/08/21 06:26:53;;;;;;;11.43;5.22;;;18.90;99.90;;;;;;5066140;28;20446;-59
2022/08/21 06:29:19;;;;;;;10.70;5.22;;;18.20;99.90;;;;;;5063134;28;20041;-58
2022/08/21 06:31:47;;;;;;;11.13;4.80;;;18.90;99.90;;;;;;5062163;28;20048;-49
2022/08/21 06:34:13;;;;;;;11.43;4.47;;;19.10;99.90;;;;;;5060066;28;20102;-51
2022/08/21 06:36:39;;;;;;;12.95;4.38;;;18.90;99.90;;;;;;5062820;28;20033;-52
2022/08/21 06:39:05;;;;;;;11.48;5.18;;;19.20;99.90;;;;;;5065656;28;20040;-49
2022/08/21 06:41:31;;;;;;;11.00;4.60;;;19.50;99.90;;;;;;5059645;28;20049;-51
2022/08/21 06:43:57;;;;;;;9.93;3.42;;;20.10;99.90;;;;;;5062133;28;20036;-49
2022/08/21 06:46:25;;;;;;;10.77;3.85;;;19.90;99.90;;;;;;5064278;28;20089;-51
2022/08/21 06:48:51;;;;;;;14.73;4.00;;;20.10;99.90;;;;;;5063120;28;20037;-51
2022/08/21 06:51:17;;;;;;;12.13;3.15;;;20.20;99.90;;;;;;5062012;28;20579;-53
2022/08/21 06:53:43;;;;;;;9.50;3.50;;;21.00;99.90;;;;;;5064014;28;20409;-49
2022/08/21 06:56:09;;;;;;;9.18;3.10;;;21.80;99.90;;;;;;5064580;28;20044;-51
2022/08/21 06:58:35;;;;;;;10.05;3.22;;;23.00;99.90;;;;;;5066252;28;20083;-50
2022/08/21 07:01:01;;;;;;;11.50;3.53;;;24.00;99.90;;;;;;5060397;28;20032;-51
2022/08/21 07:03:28;;;;;;;10.40;3.33;;;24.40;99.90;;;;;;5057190;28;20044;-52
2022/08/21 07:05:56;;;;;;;8.30;3.10;;;25.20;99.90;;;;;;5065441;28;20044;-54
2022/08/21 07:08:22;;;;;;;9.73;2.92;;;25.40;99.90;;;;;;5059970;28;20073;-54
2022/08/21 07:10:48;;;;;;;8.80;3.15;;;25.80;99.90;;;;;;5061661;28;20051;-50
2022/08/21 07:13:15;;;;;;;10.30;3.13;;;25.70;99.90;;;;;;5058443;28;20532;-50
2022/08/21 07:15:41;;;;;;;8.73;2.85;;;26.10;99.90;;;;;;5064720;28;20549;-50
2022/08/21 07:18:07;;;;;;;13.30;2.75;;;25.50;99.90;;;;;;5060005;28;20853;-49
2022/08/21 07:20:32;;;;;;;8.30;2.92;;;25.70;99.90;;;;;;5063069;28;20056;-52
2022/08/21 07:23:03;;;;;;;9.43;2.50;;;25.40;99.90;;;;;;5066903;28;20043;-50
2022/08/21 07:25:29;;;;;;;7.93;2.50;;;25.50;99.90;;;;;;5061272;28;20077;-50
2022/08/21 07:27:55;;;;;;;11.63;2.78;;;25.90;99.90;;;;;;5063231;28;20048;-50
2022/08/21 07:30:21;;;;;;;12.25;2.33;;;26.50;99.90;;;;;;5063021;28;21012;-50
2022/08/21 07:32:49;;;;;;;8.25;2.50;;;27.10;99.90;;;;;;5060143;28;20781;-51
2022/08/21 07:35:16;;;;;;;11.30;2.45;;;27.00;99.90;;;;;;5064772;28;20105;-48
2022/08/21 07:37:42;;;;;;;11.50;2.97;;;26.90;99.90;;;;;;5043704;28;20055;-52
2022/08/21 07:40:08;;;;;;;7.82;2.65;;;26.50;99.90;;;;;;5064166;28;20036;-51
2022/08/21 07:42:34;;;;;;;10.60;2.60;;;25.70;99.90;;;;;;5062234;28;21322;-49
2022/08/21 07:44:59;;;;;;;9.48;2.50;;;25.00;99.90;;;;;;5047008;28;20040;-48
2022/08/21 07:47:25;;;;;;;9.93;2.88;;;24.70;99.90;;;;;;5040427;28;20687;-50
2022/08/21 07:49:51;;;;;;;10.50;2.65;;;24.00;99.90;;;;;;5024308;28;20040;-52
2022/08/21 07:52:17;;;;;;;9.02;2.50;;;23.70;99.90;;;;;;5061881;28;20586;-53
2022/08/21 07:54:42;;;;;;;9.45;2.60;;;23.10;99.90;;;;;;5041851;28;20068;-51
2022/08/21 07:57:08;;;;;;;8.70;2.53;;;23.00;99.90;;;;;;5063592;28;20230;-51
2022/08/21 07:59:34;;;;;;;12.95;2.63;;;22.40;99.90;;;;;;5065708;28;20611;-52
2022/08/21 08:02:00;;;;;;;13.45;2.85;;;22.60;99.90;;;;;;5061660;28;20032;-50
2022/08/21 08:04:25;;;;;;;9.63;2.58;;;22.30;99.90;;;;;;5059590;28;20040;-50
2022/08/21 08:06:51;;;;;;;14.10;2.90;;;22.40;99.90;;;;;;5044617;28;20511;-50
2022/08/21 08:09:17;;;;;;;8.68;2.53;;;22.10;99.90;;;;;;5063459;28;20305;-51
2022/08/21 08:11:43;;;;;;;9.75;2.38;;;21.90;99.90;;;;;;5062061;28;20044;-49
2022/08/21 08:14:10;;;;;;;11.27;2.85;;;21.80;99.90;;;;;;5041182;28;20323;-49
2022/08/21 08:16:35;;;;;;;12.73;3.42;;;21.60;99.90;;;;;;5061563;28;20064;-51
2022/08/21 08:19:01;;;;;;;12.05;3.13;;;21.70;99.90;;;;;;5058361;28;20120;-51
2022/08/21 08:21:27;;;;;;;13.77;3.08;;;21.30;99.90;;;;;;5059885;28;20067;-51
2022/08/21 08:23:53;;;;;;;11.48;2.90;;;21.60;99.90;;;;;;5063194;28;20066;-48
2022/08/21 08:26:19;;;;;;;12.15;2.78;;;21.40;99.90;;;;;;5062278;28;20068;-52
2022/08/21 08:28:47;;;;;;;11.95;2.78;;;21.40;99.90;;;;;;5063967;28;20122;-49
2022/08/21 08:31:13;;;;;;;8.93;2.65;;;21.30;99.90;;;;;;5062083;28;20448;-51
2022/08/21 08:33:39;;;;;;;10.15;2.85;;;21.30;99.90;;;;;;5063396;28;20821;-49
2022/08/21 08:36:11;;;;;;;13.55;3.05;;;21.20;99.90;;;;;;5065249;28;20105;-49
2022/08/21 08:38:37;;;;;;;9.73;2.70;;;21.40;99.90;;;;;;5066917;28;20090;-50
2022/08/21 08:41:12;;;;;;;11.07;2.65;;;21.20;99.90;;;;;;5049743;28;20147;-52
2022/08/21 08:43:40;;;;;;;10.82;2.78;;;21.40;99.90;;;;;;5062251;28;23634;-50
2022/08/21 08:46:13;;;;;;;12.27;2.80;;;21.40;99.90;;;;;;5069687;28;20471;-50
2022/08/21 08:49:07;;;;;;;10.80;2.90;;;21.50;99.90;;;;;;5062944;28;20080;-49
2022/08/21 08:51:39;;;;;;;10.68;2.38;;;21.50;99.90;;;;;;5055062;28;20048;-48
2022/08/21 08:54:10;;;;;;;9.80;3.33;;;21.20;99.90;;;;;;5070770;28;20048;-50
2022/08/21 08:56:36;;;;;;;;;;;21.30;99.90;;;;;;5067110;28;20348;-50
2022/08/21 08:59:25;;;;;;;13.90;3.60;;;21.30;99.90;;;;;;5067665;28;19924;-52
2022/08/21 09:01:52;;;;;;;11.30;2.72;;;21.30;99.90;;;;;;5062692;28;20044;-50
2022/08/21 09:04:25;;;;;;;10.85;2.38;;;21.30;99.90;;;;;;5064081;28;20055;-51
2022/08/21 09:07:09;;;;;;;15.02;3.85;;;21.60;99.90;;;;;;5066591;28;20055;-51
2022/08/21 09:09:59;;;;;;;10.25;2.92;;;21.60;99.90;;;;;;5062084;28;20048;-48
2022/08/21 09:12:39;;;;;;;17.08;2.95;;;21.70;99.90;;;;;;5064200;28;20508;-48
2022/08/21 09:15:24;;;;;;;13.80;3.42;;;21.80;99.90;;;;;;5061543;28;20547;-50
2022/08/21 09:17:58;;;;;;;14.77;2.88;;;21.80;99.90;;;;;;5062835;28;20703;-48
2022/08/21 09:21:01;;;;;;;11.10;2.45;;;22.00;99.90;;;;;;5066607;28;20044;-49
2022/08/21 09:23:41;;;;;;;13.23;2.85;;;22.10;99.90;;;;;;5048809;28;20053;-50
2022/08/21 09:26:16;;;;;;;15.73;2.70;;;22.10;99.90;;;;;;5066766;28;20036;-50
2022/08/21 09:28:43;;;;;;;8.88;2.25;;;22.30;99.90;;;;;;5066090;28;20035;-49
2022/08/21 09:31:16;;;;;;;14.40;2.80;;;22.30;99.90;;;;;;5068686;28;20041;-53
2022/08/21 09:33:42;;;;;;;12.25;2.38;;;23.90;99.90;;;;;;5065800;28;20215;-49
2022/08/21 09:36:08;;;;;;;13.40;2.92;;;22.20;99.90;;;;;;5064649;28;20028;-52
2022/08/21 09:38:36;;;;;;;14.23;2.92;;;22.40;99.90;;;;;;5046704;28;20051;-52
2022/08/21 09:41:08;;;;;;;17.15;3.10;;;22.60;99.90;;;;;;5063413;28;20040;-50
2022/08/21 09:43:35;;;;;;;16.85;2.97;;;22.60;99.90;;;;;;5062234;28;20060;-53
2022/08/21 09:46:04;;;;;;;12.40;2.53;;;22.50;99.90;;;;;;5066133;28;20039;-51
2022/08/21 09:48:37;;;;;;;19.67;3.60;;;22.50;99.90;;;;;;5062221;28;20173;-51
2022/08/21 09:51:09;;;;;;;10.00;2.15;;;22.80;99.90;;;;;;5059604;28;20048;-49
2022/08/21 09:53:42;;;;;;;14.40;3.45;;;22.70;99.90;;;;;;5056423;28;20043;-49
2022/08/21 09:59:31;;;;;;;11.50;2.58;;;23.10;99.90;;;;;;5066638;28;20746;-48
2022/08/21 10:02:01;;;;;;;10.18;2.70;;;23.30;99.90;;;;;;5066315;28;20285;-52
2022/08/21 10:04:31;;;;;;;13.27;2.72;;;23.10;99.90;;;;;;5036740;28;20055;-53
2022/08/21 10:07:12;;;;;;;10.15;2.38;;;22.80;99.90;;;;;;5066426;28;20076;-53
2022/08/21 10:09:38;;;;;;;14.73;2.60;;;22.60;99.90;;;;;;5067152;28;20040;-51
2022/08/21 10:12:26;;;;;;;11.07;2.65;;;22.50;99.90;;;;;;5070281;28;20564;-52
2022/08/21 10:15:14;;;;;;;7.88;2.20;;;22.70;99.90;;;;;;5063297;28;20500;-48
2022/08/21 10:18:02;;;;;;;9.52;2.42;;;22.30;99.90;;;;;;5069042;28;20032;-50
2022/08/21 10:20:43;;;;;;;9.82;2.20;;;22.00;99.90;;;;;;5067510;28;20396;-49
2022/08/21 10:23:24;;;;;;;11.73;2.30;;;21.90;99.90;;;;;;5063316;28;20134;-50
2022/08/21 10:25:58;;;;;;;14.35;2.78;;;21.80;99.90;;;;;;5066618;28;20400;-53
2022/08/21 10:29:00;;;;;;;15.25;2.83;;;21.70;99.90;;;;;;5065030;28;20040;-48
2022/08/21 10:31:37;;;;;;;12.93;3.40;;;21.30;99.90;;;;;;5005977;28;20052;-49
2022/08/21 10:34:16;;;;;;;12.85;2.70;;;21.10;99.90;;;;;;5066174;28;20047;-52
2022/08/21 10:37:02;;;;;;;10.90;2.40;;;21.30;99.90;;;;;;5047445;28;20055;-52
2022/08/21 10:39:34;;;;;;;12.23;3.05;;;21.50;99.90;;;;;;5047581;28;20768;-50
2022/08/21 10:42:15;;;;;;;14.80;2.85;;;21.50;99.90;;;;;;5063100;28;20048;-49
2022/08/21 10:45:26;;;;;;;10.38;2.20;;;21.40;99.90;;;;;;5067159;28;20422;-51
2022/08/21 10:48:00;;;;;;;8.48;2.03;;;21.40;99.90;;;;;;5011498;28;20049;-52
2022/08/21 10:50:30;;;;;;;14.68;3.15;;;21.30;99.90;;;;;;5058634;28;20091;-49
2022/08/21 10:53:09;;;;;;;8.82;2.63;;;21.40;99.90;;;;;;5058444;28;20052;-49
2022/08/21 10:55:56;;;;;;;11.45;2.15;;;21.90;99.90;;;;;;5046847;28;20040;-48
2022/08/21 10:58:30;;;;;;;11.07;2.67;;;22.20;99.90;;;;;;5064984;28;20039;-49
2022/08/21 11:01:11;;;;;;;12.65;2.83;;;22.60;99.90;;;;;;5062413;28;20043;-49
2022/08/21 11:03:54;;;;;;;14.65;2.60;;;22.90;99.90;;;;;;5054154;28;20032;-50
2022/08/21 11:06:31;;;;;;;11.98;2.38;;;23.50;99.90;;;;;;5066989;28;20074;-50
2022/08/21 11:09:14;;;;;;;13.52;2.67;;;23.70;99.90;;;;;;5062090;28;20039;-50
2022/08/21 11:11:55;;;;;;;12.23;2.80;;;23.50;99.90;;;;;;5044851;28;20036;-50
2022/08/21 11:14:44;;;;;;;10.70;2.70;;;23.30;99.90;;;;;;5063628;28;20090;-51
2022/08/21 11:17:13;;;;;;;11.15;2.50;;;24.10;99.90;;;;;;5052907;28;20051;-51
2022/08/21 11:19:55;;;;;;;9.35;2.55;;;24.20;99.90;;;;;;5060239;28;20215;-48
2022/08/21 11:22:36;;;;;;;10.23;2.60;;;24.10;99.90;;;;;;5063594;28;20059;-52
2022/08/21 11:25:11;;;;;;;13.25;2.50;;;23.70;99.90;;;;;;5063281;28;20564;-49
2022/08/21 11:27:57;;;;;;;10.65;2.42;;;23.50;99.90;;;;;;5068278;28;20063;-50
2022/08/21 11:30:31;;;;;;;10.27;2.58;;;23.10;99.90;;;;;;5025858;28;20087;-48
2022/08/21 11:33:05;;;;;;;12.85;2.40;;;22.70;99.90;;;;;;5064687;28;20109;-50
2022/08/21 11:35:49;;;;;;;9.88;2.55;;;22.80;99.90;;;;;;5063174;28;20036;-50
2022/08/21 11:38:18;;;;;;;10.63;2.60;;;22.40;99.90;;;;;;5064315;28;20037;-49
2022/08/21 11:41:02;;;;;;;8.98;2.15;;;22.30;99.90;;;;;;5063981;28;20176;-50
2022/08/21 11:43:50;;;;;;;9.75;2.33;;;22.40;99.90;;;;;;5061499;28;20213;-51
2022/08/21 11:46:22;;;;;;;9.63;2.17;;;22.10;99.90;;;;;;5064452;28;20453;-48
2022/08/21 11:48:48;;;;;;;9.27;2.15;;;22.20;99.90;;;;;;5062021;28;20079;-49
2022/08/21 11:51:31;;;;;;;9.00;2.63;;;22.10;99.90;;;;;;5061850;28;20246;-49
2022/08/21 11:54:33;;;;;;;9.90;2.20;;;22.10;99.90;;;;;;5064281;28;20061;-49
2022/08/21 11:57:28;;;;;;;10.02;2.20;;;22.20;99.90;;;;;;5063355;28;20040;-49
2022/08/21 12:00:15;;;;;;;10.30;2.45;;;22.00;99.90;;;;;;5062349;28;20067;-48
2022/08/21 12:02:47;;;;;;;8.50;2.13;;;22.00;99.90;;;;;;5056669;28;20055;-49
2022/08/21 12:05:46;;;;;;;9.18;2.10;;;22.30;99.90;;;;;;5063168;28;20054;-49
2022/08/21 12:08:34;;;;;;;6.90;2.25;;;22.60;99.90;;;;;;5056371;28;20595;-50
2022/08/21 12:11:04;;;;;;;8.63;1.75;;;23.20;99.90;;;;;;5064993;28;20049;-51
2022/08/21 12:13:35;;;;;;;8.70;1.60;;;23.90;99.90;;;;;;5069047;28;20526;-52
2022/08/21 12:16:08;;;;;;;7.55;1.77;;;24.30;99.90;;;;;;5068149;28;20428;-52
2022/08/21 12:18:34;;;;;;;5.63;1.50;;;24.40;99.90;;;;;;5063692;28;20048;-50
2022/08/21 12:21:21;;;;;;;6.60;1.60;;;24.70;99.90;;;;;;5069909;28;20396;-48
2022/08/21 12:24:04;;;;;;;6.97;1.80;;;24.90;99.90;;;;;;5065944;28;20040;-51
2022/08/21 12:26:49;;;;;;;7.00;1.98;;;24.70;99.90;;;;;;5068671;28;20403;-50
2022/08/21 12:29:24;;;;;;;6.65;1.55;;;24.50;99.90;;;;;;5067632;28;20523;-49
2022/08/21 12:31:54;;;;;;;10.85;1.92;;;24.40;99.90;;;;;;5066672;28;20045;-52
2022/08/21 12:34:24;;;;;;;6.73;1.77;;;23.90;99.90;;;;;;5067319;28;20048;-48
2022/08/21 12:36:57;;;;;;;10.13;1.85;;;23.80;99.90;;;;;;5067242;28;20051;-50
2022/08/21 12:39:27;;;;;;;6.50;1.70;;;23.60;99.90;;;;;;5068587;28;20408;-53
2022/08/21 12:41:59;;;;;;;7.38;1.70;;;23.30;99.90;;;;;;5037904;28;20471;-53
2022/08/21 12:44:42;;;;;;;10.00;1.90;;;23.10;99.90;;;;;;5042463;28;20052;-49
2022/08/21 12:47:34;;;;;;;8.20;1.83;;;23.20;99.90;;;;;;5044438;28;20049;-49
2022/08/21 12:50:08;;;;;;;9.55;2.05;;;23.00;99.90;;;;;;5044725;28;20466;-50
2022/08/21 12:53:00;;;;;;;7.45;1.70;;;23.00;99.90;;;;;;5043105;28;20071;-52
2022/08/21 12:55:31;;;;;;;7.60;1.90;;;22.90;99.90;;;;;;5043990;28;20040;-49
2022/08/21 12:57:58;;;;;;;9.90;1.53;;;22.60;99.90;;;;;;5043931;28;20098;-51